sensor_id;sensor_type;location;lat;lon;timestamp;pressure;altitude;pressure_sealevel;temperature;humidity
50682;BME280;36779;52.168;20.878;2023-12-20T00:01:14;99679.14;;;5.51;79.24
50682;BME280;36779;52.168;20.878;2023-12-20T00:04:01;99678.33;;;5.50;79.30
50682;BME280;36779;52.168;20.878;2023-12-20T00:07:01;99675.85;;;5.50;79.26
50682;BME280;36779;52.168;20.878;2023-12-20T00:09:39;99671.10;;;5.50;79.35
50682;BME280;36779;52.168;20.878;2023-12-20T00:12:29;99664.27;;;5.52;79.30
50682;BME280;36779;52.168;20.878;2023-12-20T00:15:12;99662.42;;;5.52;79.40
50682;BME280;36779;52.168;20.878;2023-12-20T00:18:03;99656.91;;;5.53;79.38
50682;BME280;36779;52.168;20.878;2023-12-20T00:24:04;99656.23;;;5.56;79.42
50682;BME280;36779;52.168;20.878;2023-12-20T00:26:58;99658.41;;;5.55;79.38
50682;BME280;36779;52.168;20.878;2023-12-20T00:29:48;99650.90;;;5.55;79.51
50682;BME280;36779;52.168;20.878;2023-12-20T00:32:39;99651.06;;;5.55;79.49
50682;BME280;36779;52.168;20.878;2023-12-20T00:35:38;99650.71;;;5.57;79.49
50682;BME280;36779;52.168;20.878;2023-12-20T00:38:29;99650.71;;;5.58;79.45
50682;BME280;36779;52.168;20.878;2023-12-20T00:41:18;99650.23;;;5.60;79.50
50682;BME280;36779;52.168;20.878;2023-12-20T00:44:08;99647.73;;;5.60;79.44
50682;BME280;36779;52.168;20.878;2023-12-20T00:47:03;99645.84;;;5.60;79.48
50682;BME280;36779;52.168;20.878;2023-12-20T00:49:58;99638.42;;;5.60;79.46
50682;BME280;36779;52.168;20.878;2023-12-20T00:52:53;99636.83;;;5.60;79.45
50682;BME280;36779;52.168;20.878;2023-12-20T00:55:47;99630.86;;;5.60;79.48
50682;BME280;36779;52.168;20.878;2023-12-20T00:58:49;99632.42;;;5.60;79.53
50682;BME280;36779;52.168;20.878;2023-12-20T01:01:43;99625.33;;;5.60;79.49
50682;BME280;36779;52.168;20.878;2023-12-20T01:04:32;99616.44;;;5.61;79.59
50682;BME280;36779;52.168;20.878;2023-12-20T01:07:29;99621.98;;;5.62;79.53
50682;BME280;36779;52.168;20.878;2023-12-20T01:10:25;99622.13;;;5.62;79.47
50682;BME280;36779;52.168;20.878;2023-12-20T01:13:37;99617.89;;;5.62;79.61
50682;BME280;36779;52.168;20.878;2023-12-20T01:16:29;99623.48;;;5.63;79.56
50682;BME280;36779;52.168;20.878;2023-12-20T01:19:43;99624.73;;;5.62;79.60
50682;BME280;36779;52.168;20.878;2023-12-20T01:22:34;99619.92;;;5.63;79.60
50682;BME280;36779;52.168;20.878;2023-12-20T01:25:29;99615.25;;;5.62;79.50
50682;BME280;36779;52.168;20.878;2023-12-20T01:28:11;99615.91;;;5.63;79.58
50682;BME280;36779;52.168;20.878;2023-12-20T01:31:01;99612.27;;;5.64;79.65
50682;BME280;36779;52.168;20.878;2023-12-20T01:33:34;99608.48;;;5.65;79.67
50682;BME280;36779;52.168;20.878;2023-12-20T01:36:27;99604.54;;;5.65;79.63
50682;BME280;36779;52.168;20.878;2023-12-20T01:39:18;99600.30;;;5.64;79.60
50682;BME280;36779;52.168;20.878;2023-12-20T01:42:19;99599.97;;;5.62;79.46
50682;BME280;36779;52.168;20.878;2023-12-20T01:45:15;99597.73;;;5.61;79.47
50682;BME280;36779;52.168;20.878;2023-12-20T01:48:07;99596.31;;;5.59;79.52
50682;BME280;36779;52.168;20.878;2023-12-20T01:51:01;99594.13;;;5.59;79.51
50682;BME280;36779;52.168;20.878;2023-12-20T01:53:42;99595.21;;;5.58;79.54
50682;BME280;36779;52.168;20.878;2023-12-20T01:56:34;99593.23;;;5.57;79.67
50682;BME280;36779;52.168;20.878;2023-12-20T01:59:27;99588.44;;;5.57;79.60
50682;BME280;36779;52.168;20.878;2023-12-20T02:02:23;99588.86;;;5.58;79.73
50682;BME280;36779;52.168;20.878;2023-12-20T02:08:30;99585.36;;;5.58;79.62
50682;BME280;36779;52.168;20.878;2023-12-20T02:11:24;99583.55;;;5.59;79.66
50682;BME280;36779;52.168;20.878;2023-12-20T02:14:18;99576.87;;;5.60;79.67
50682;BME280;36779;52.168;20.878;2023-12-20T02:17:05;99577.34;;;5.61;79.68
50682;BME280;36779;52.168;20.878;2023-12-20T02:19:59;99569.80;;;5.60;79.70
50682;BME280;36779;52.168;20.878;2023-12-20T02:22:50;99573.67;;;5.59;79.68
50682;BME280;36779;52.168;20.878;2023-12-20T02:25:40;99568.31;;;5.58;79.54
50682;BME280;36779;52.168;20.878;2023-12-20T02:28:32;99569.50;;;5.58;79.73
50682;BME280;36779;52.168;20.878;2023-12-20T02:31:24;99556.31;;;5.58;79.62
50682;BME280;36779;52.168;20.878;2023-12-20T02:34:17;99553.30;;;5.56;79.61
50682;BME280;36779;52.168;20.878;2023-12-20T02:37:07;99554.14;;;5.58;79.68
50682;BME280;36779;52.168;20.878;2023-12-20T02:40:17;99554.85;;;5.60;79.59
50682;BME280;36779;52.168;20.878;2023-12-20T02:43:07;99549.17;;;5.62;79.61
50682;BME280;36779;52.168;20.878;2023-12-20T02:45:58;99551.55;;;5.63;79.72
50682;BME280;36779;52.168;20.878;2023-12-20T02:49:07;99554.75;;;5.64;79.77
50682;BME280;36779;52.168;20.878;2023-12-20T02:51:58;99552.21;;;5.69;79.86
50682;BME280;36779;52.168;20.878;2023-12-20T02:54:41;99542.52;;;5.72;79.79
50682;BME280;36779;52.168;20.878;2023-12-20T02:57:30;99542.83;;;5.73;79.76
50682;BME280;36779;52.168;20.878;2023-12-20T03:00:14;99542.62;;;5.73;79.80
50682;BME280;36779;52.168;20.878;2023-12-20T03:03:10;99541.70;;;5.74;79.81
50682;BME280;36779;52.168;20.878;2023-12-20T03:06:02;99547.79;;;5.75;79.91
50682;BME280;36779;52.168;20.878;2023-12-20T03:08:45;99540.86;;;5.73;79.84
50682;BME280;36779;52.168;20.878;2023-12-20T03:11:31;99543.09;;;5.71;79.79
50682;BME280;36779;52.168;20.878;2023-12-20T03:14:23;99539.16;;;5.69;79.69
50682;BME280;36779;52.168;20.878;2023-12-20T03:17:06;99530.47;;;5.70;79.76
50682;BME280;36779;52.168;20.878;2023-12-20T03:19:44;99527.71;;;5.71;79.81
50682;BME280;36779;52.168;20.878;2023-12-20T03:22:34;99534.02;;;5.73;79.87
50682;BME280;36779;52.168;20.878;2023-12-20T03:25:30;99537.27;;;5.74;79.89
50682;BME280;36779;52.168;20.878;2023-12-20T03:28:31;99535.78;;;5.75;79.79
50682;BME280;36779;52.168;20.878;2023-12-20T03:31:21;99528.04;;;5.78;79.92
50682;BME280;36779;52.168;20.878;2023-12-20T03:34:10;99525.77;;;5.80;79.86
50682;BME280;36779;52.168;20.878;2023-12-20T03:37:03;99528.33;;;5.78;79.80
50682;BME280;36779;52.168;20.878;2023-12-20T03:39:53;99525.27;;;5.79;79.93
50682;BME280;36779;52.168;20.878;2023-12-20T03:42:45;99520.70;;;5.79;79.93
50682;BME280;36779;52.168;20.878;2023-12-20T03:45:35;99520.50;;;5.78;79.91
50682;BME280;36779;52.168;20.878;2023-12-20T03:48:29;99511.13;;;5.76;79.89
50682;BME280;36779;52.168;20.878;2023-12-20T03:51:21;99512.93;;;5.75;79.88
50682;BME280;36779;52.168;20.878;2023-12-20T03:54:13;99518.80;;;5.77;79.94
50682;BME280;36779;52.168;20.878;2023-12-20T03:56:52;99523.58;;;5.79;80.01
50682;BME280;36779;52.168;20.878;2023-12-20T03:59:42;99519.67;;;5.79;79.99
50682;BME280;36779;52.168;20.878;2023-12-20T04:02:33;99515.27;;;5.79;79.93
50682;BME280;36779;52.168;20.878;2023-12-20T04:05:24;99508.14;;;5.78;79.76
50682;BME280;36779;52.168;20.878;2023-12-20T04:08:14;99517.87;;;5.79;79.97
50682;BME280;36779;52.168;20.878;2023-12-20T04:11:06;99521.69;;;5.78;79.95
50682;BME280;36779;52.168;20.878;2023-12-20T04:13:59;99516.47;;;5.77;79.92
50682;BME280;36779;52.168;20.878;2023-12-20T04:16:49;99518.65;;;5.78;79.95
50682;BME280;36779;52.168;20.878;2023-12-20T04:19:41;99525.27;;;5.79;80.02
50682;BME280;36779;52.168;20.878;2023-12-20T04:22:34;99519.95;;;5.79;79.97
50682;BME280;36779;52.168;20.878;2023-12-20T04:25:24;99516.16;;;5.81;79.99
50682;BME280;36779;52.168;20.878;2023-12-20T04:28:16;99523.91;;;5.79;79.88
50682;BME280;36779;52.168;20.878;2023-12-20T04:31:08;99519.34;;;5.77;79.93
50682;BME280;36779;52.168;20.878;2023-12-20T04:37:10;99513.08;;;5.80;79.92
50682;BME280;36779;52.168;20.878;2023-12-20T04:40:05;99516.95;;;5.80;79.86
50682;BME280;36779;52.168;20.878;2023-12-20T04:43:01;99520.42;;;5.80;79.99
50682;BME280;36779;52.168;20.878;2023-12-20T04:45:50;99520.57;;;5.82;80.01
50682;BME280;36779;52.168;20.878;2023-12-20T04:49:08;99521.39;;;5.83;79.96
50682;BME280;36779;52.168;20.878;2023-12-20T04:51:50;99515.96;;;5.82;79.97
50682;BME280;36779;52.168;20.878;2023-12-20T04:54:42;99517.53;;;5.82;79.94
50682;BME280;36779;52.168;20.878;2023-12-20T04:57:36;99517.71;;;5.82;79.91
50682;BME280;36779;52.168;20.878;2023-12-20T05:00:26;99512.83;;;5.82;79.91
50682;BME280;36779;52.168;20.878;2023-12-20T05:03:20;99506.63;;;5.86;80.19
50682;BME280;36779;52.168;20.878;2023-12-20T05:06:11;99509.77;;;5.92;80.14
50682;BME280;36779;52.168;20.878;2023-12-20T05:09:07;99508.39;;;5.93;80.16
50682;BME280;36779;52.168;20.878;2023-12-20T05:12:07;99507.11;;;5.96;80.10
50682;BME280;36779;52.168;20.878;2023-12-20T05:14:57;99503.27;;;5.97;80.18
50682;BME280;36779;52.168;20.878;2023-12-20T05:17:51;99496.39;;;5.93;79.85
50682;BME280;36779;52.168;20.878;2023-12-20T05:20:41;99496.89;;;5.90;80.03
50682;BME280;36779;52.168;20.878;2023-12-20T05:23:41;99500.74;;;5.88;80.00
50682;BME280;36779;52.168;20.878;2023-12-20T05:26:45;99499.20;;;5.88;80.00
50682;BME280;36779;52.168;20.878;2023-12-20T05:29:37;99493.10;;;5.85;79.94
50682;BME280;36779;52.168;20.878;2023-12-20T05:32:27;99493.52;;;5.83;79.91
50682;BME280;36779;52.168;20.878;2023-12-20T05:35:23;99493.16;;;5.81;79.86
50682;BME280;36779;52.168;20.878;2023-12-20T05:38:15;99493.79;;;5.80;79.97
50682;BME280;36779;52.168;20.878;2023-12-20T05:41:08;99496.86;;;5.81;79.98
50682;BME280;36779;52.168;20.878;2023-12-20T05:44:00;99500.10;;;5.81;80.06
50682;BME280;36779;52.168;20.878;2023-12-20T05:46:54;99501.50;;;5.79;80.01
50682;BME280;36779;52.168;20.878;2023-12-20T05:49:44;99496.98;;;5.77;79.94
50682;BME280;36779;52.168;20.878;2023-12-20T05:52:37;99493.34;;;5.73;79.85
50682;BME280;36779;52.168;20.878;2023-12-20T05:55:26;99494.12;;;5.74;80.02
50682;BME280;36779;52.168;20.878;2023-12-20T05:58:17;99496.42;;;5.73;80.07
50682;BME280;36779;52.168;20.878;2023-12-20T06:01:08;99492.79;;;5.74;80.13
50682;BME280;36779;52.168;20.878;2023-12-20T06:03:49;99489.27;;;5.74;80.03
50682;BME280;36779;52.168;20.878;2023-12-20T06:06:44;99486.79;;;5.71;80.00
50682;BME280;36779;52.168;20.878;2023-12-20T06:09:35;99487.07;;;5.68;79.90
50682;BME280;36779;52.168;20.878;2023-12-20T06:12:27;99487.45;;;5.66;79.87
50682;BME280;36779;52.168;20.878;2023-12-20T06:15:18;99492.05;;;5.64;80.05
50682;BME280;36779;52.168;20.878;2023-12-20T06:18:13;99494.43;;;5.63;79.96
50682;BME280;36779;52.168;20.878;2023-12-20T06:21:05;99489.12;;;5.61;79.97
50682;BME280;36779;52.168;20.878;2023-12-20T06:23:58;99496.18;;;5.60;79.93
50682;BME280;36779;52.168;20.878;2023-12-20T06:26:47;99491.55;;;5.59;79.98
50682;BME280;36779;52.168;20.878;2023-12-20T06:29:37;99489.61;;;5.57;79.98
50682;BME280;36779;52.168;20.878;2023-12-20T06:32:26;99493.76;;;5.54;79.87
50682;BME280;36779;52.168;20.878;2023-12-20T06:35:18;99493.06;;;5.54;79.96
50682;BME280;36779;52.168;20.878;2023-12-20T06:38:19;99496.85;;;5.53;80.03
50682;BME280;36779;52.168;20.878;2023-12-20T06:41:13;99492.95;;;5.53;79.94
50682;BME280;36779;52.168;20.878;2023-12-20T06:43:53;99488.44;;;5.54;80.00
50682;BME280;36779;52.168;20.878;2023-12-20T06:46:45;99490.06;;;5.54;80.04
50682;BME280;36779;52.168;20.878;2023-12-20T06:49:39;99496.30;;;5.55;79.94
50682;BME280;36779;52.168;20.878;2023-12-20T06:52:30;99495.25;;;5.57;80.03
50682;BME280;36779;52.168;20.878;2023-12-20T06:55:31;99498.70;;;5.61;80.09
50682;BME280;36779;52.168;20.878;2023-12-20T06:58:20;99495.44;;;5.62;80.12
50682;BME280;36779;52.168;20.878;2023-12-20T07:01:12;99497.59;;;5.65;80.19
50682;BME280;36779;52.168;20.878;2023-12-20T07:04:02;99494.02;;;5.67;80.12
50682;BME280;36779;52.168;20.878;2023-12-20T07:06:42;99497.15;;;5.70;80.09
50682;BME280;36779;52.168;20.878;2023-12-20T07:09:12;99495.66;;;5.72;80.02
50682;BME280;36779;52.168;20.878;2023-12-20T07:12:03;99496.16;;;5.76;80.15
50682;BME280;36779;52.168;20.878;2023-12-20T07:14:53;99496.15;;;5.76;80.03
50682;BME280;36779;52.168;20.878;2023-12-20T07:31:31;99500.09;;;6.05;79.66
50682;BME280;36779;52.168;20.878;2023-12-20T07:34:25;99500.23;;;6.18;79.43
50682;BME280;36779;52.168;20.878;2023-12-20T07:37:20;99495.58;;;6.16;79.48
50682;BME280;36779;52.168;20.878;2023-12-20T07:40:15;99494.92;;;6.13;79.65
50682;BME280;36779;52.168;20.878;2023-12-20T07:43:01;99499.82;;;6.10;79.62
50682;BME280;36779;52.168;20.878;2023-12-20T07:46:05;99499.89;;;6.06;79.73
50682;BME280;36779;52.168;20.878;2023-12-20T07:49:00;99500.08;;;6.01;79.66
50682;BME280;36779;52.168;20.878;2023-12-20T07:51:52;99499.39;;;5.97;79.72
50682;BME280;36779;52.168;20.878;2023-12-20T07:54:45;99499.92;;;5.94;79.78
50682;BME280;36779;52.168;20.878;2023-12-20T07:57:37;99500.15;;;5.90;79.90
50682;BME280;36779;52.168;20.878;2023-12-20T08:00:11;99500.95;;;5.88;79.90
50682;BME280;36779;52.168;20.878;2023-12-20T08:03:31;99496.20;;;5.86;79.92
50682;BME280;36779;52.168;20.878;2023-12-20T08:06:27;99499.77;;;5.82;79.82
50682;BME280;36779;52.168;20.878;2023-12-20T08:09:20;99500.91;;;5.80;79.91
50682;BME280;36779;52.168;20.878;2023-12-20T08:12:14;99500.47;;;5.79;80.01
50682;BME280;36779;52.168;20.878;2023-12-20T08:15:10;99496.62;;;5.77;79.86
50682;BME280;36779;52.168;20.878;2023-12-20T08:18:06;99496.77;;;5.73;79.88
50682;BME280;36779;52.168;20.878;2023-12-20T08:20:51;99493.45;;;5.73;80.04
50682;BME280;36779;52.168;20.878;2023-12-20T08:23:45;99490.31;;;5.73;80.07
50682;BME280;36779;52.168;20.878;2023-12-20T08:26:40;99493.23;;;5.74;80.09
50682;BME280;36779;52.168;20.878;2023-12-20T08:29:34;99490.56;;;5.72;80.09
50682;BME280;36779;52.168;20.878;2023-12-20T08:32:28;99488.35;;;5.71;80.00
50682;BME280;36779;52.168;20.878;2023-12-20T08:35:26;99486.61;;;5.73;80.03
50682;BME280;36779;52.168;20.878;2023-12-20T08:38:22;99488.14;;;5.70;79.94
50682;BME280;36779;52.168;20.878;2023-12-20T08:41:17;99488.74;;;5.69;80.02
50682;BME280;36779;52.168;20.878;2023-12-20T08:44:14;99487.23;;;5.70;80.03
50682;BME280;36779;52.168;20.878;2023-12-20T08:47:10;99487.96;;;5.68;80.03
50682;BME280;36779;52.168;20.878;2023-12-20T08:50:06;99491.30;;;5.66;80.03
50682;BME280;36779;52.168;20.878;2023-12-20T08:52:59;99489.34;;;5.66;79.97
50682;BME280;36779;52.168;20.878;2023-12-20T08:56:01;99492.23;;;5.68;80.03
50682;BME280;36779;52.168;20.878;2023-12-20T08:59:14;99488.77;;;5.67;80.02
50682;BME280;36779;52.168;20.878;2023-12-20T09:02:11;99486.69;;;5.67;79.97
50682;BME280;36779;52.168;20.878;2023-12-20T09:05:05;99481.02;;;5.65;80.01
50682;BME280;36779;52.168;20.878;2023-12-20T09:08:01;99484.09;;;5.66;80.00
50682;BME280;36779;52.168;20.878;2023-12-20T09:11:05;99477.45;;;5.68;80.07
50682;BME280;36779;52.168;20.878;2023-12-20T09:14:02;99476.02;;;5.71;80.07
50682;BME280;36779;52.168;20.878;2023-12-20T09:16:55;99477.17;;;5.72;80.11
50682;BME280;36779;52.168;20.878;2023-12-20T09:19:56;99466.83;;;5.72;80.00
50682;BME280;36779;52.168;20.878;2023-12-20T09:22:52;99466.76;;;5.72;80.07
50682;BME280;36779;52.168;20.878;2023-12-20T09:25:45;99465.52;;;5.71;80.04
50682;BME280;36779;52.168;20.878;2023-12-20T09:28:42;99459.52;;;5.71;80.10
50682;BME280;36779;52.168;20.878;2023-12-20T09:34:42;99449.84;;;5.77;80.28
50682;BME280;36779;52.168;20.878;2023-12-20T09:37:27;99444.86;;;5.78;80.18
50682;BME280;36779;52.168;20.878;2023-12-20T09:40:34;99443.37;;;5.78;80.13
50682;BME280;36779;52.168;20.878;2023-12-20T09:43:31;99444.27;;;5.78;80.09
50682;BME280;36779;52.168;20.878;2023-12-20T09:46:22;99444.73;;;5.77;80.12
50682;BME280;36779;52.168;20.878;2023-12-20T09:49:02;99442.02;;;5.78;80.14
50682;BME280;36779;52.168;20.878;2023-12-20T09:51:56;99440.29;;;5.79;80.22
50682;BME280;36779;52.168;20.878;2023-12-20T09:54:51;99441.15;;;5.81;80.12
50682;BME280;36779;52.168;20.878;2023-12-20T09:57:49;99440.82;;;5.81;80.05
50682;BME280;36779;52.168;20.878;2023-12-20T10:00:42;99435.40;;;5.82;80.08
50682;BME280;36779;52.168;20.878;2023-12-20T10:03:38;99434.55;;;5.80;80.14
50682;BME280;36779;52.168;20.878;2023-12-20T10:06:23;99430.89;;;5.80;80.17
50682;BME280;36779;52.168;20.878;2023-12-20T10:09:16;99431.54;;;5.78;80.09
50682;BME280;36779;52.168;20.878;2023-12-20T10:12:09;99434.48;;;5.77;80.13
50682;BME280;36779;52.168;20.878;2023-12-20T10:15:06;99433.86;;;5.78;80.14
50682;BME280;36779;52.168;20.878;2023-12-20T10:18:02;99431.33;;;5.81;80.21
50682;BME280;36779;52.168;20.878;2023-12-20T10:20:58;99430.38;;;5.81;80.28
50682;BME280;36779;52.168;20.878;2023-12-20T10:23:52;99423.29;;;5.80;80.12
50682;BME280;36779;52.168;20.878;2023-12-20T10:26:45;99424.24;;;5.79;80.18
50682;BME280;36779;52.168;20.878;2023-12-20T10:29:34;99416.35;;;5.81;80.20
50682;BME280;36779;52.168;20.878;2023-12-20T10:32:32;99416.85;;;5.81;80.12
50682;BME280;36779;52.168;20.878;2023-12-20T10:35:33;99410.55;;;5.82;80.12
50682;BME280;36779;52.168;20.878;2023-12-20T10:38:26;99406.24;;;5.83;80.15
50682;BME280;36779;52.168;20.878;2023-12-20T10:41:17;99403.02;;;5.83;80.21
50682;BME280;36779;52.168;20.878;2023-12-20T10:44:12;99405.20;;;5.84;80.20
50682;BME280;36779;52.168;20.878;2023-12-20T10:47:32;99405.16;;;5.83;80.16
50682;BME280;36779;52.168;20.878;2023-12-20T10:50:28;99409.39;;;5.83;80.19
50682;BME280;36779;52.168;20.878;2023-12-20T10:53:45;99407.90;;;5.86;80.23
50682;BME280;36779;52.168;20.878;2023-12-20T10:56:42;99402.12;;;5.87;80.17
50682;BME280;36779;52.168;20.878;2023-12-20T10:59:38;99397.07;;;5.86;80.13
50682;BME280;36779;52.168;20.878;2023-12-20T11:02:26;99393.68;;;5.88;80.14
50682;BME280;36779;52.168;20.878;2023-12-20T11:05:33;99390.29;;;5.87;80.22
50682;BME280;36779;52.168;20.878;2023-12-20T11:08:33;99388.51;;;5.89;80.19
50682;BME280;36779;52.168;20.878;2023-12-20T11:11:34;99385.23;;;5.90;80.25
50682;BME280;36779;52.168;20.878;2023-12-20T11:14:31;99378.05;;;5.89;80.17
50682;BME280;36779;52.168;20.878;2023-12-20T11:17:28;99368.34;;;5.89;80.18
50682;BME280;36779;52.168;20.878;2023-12-20T11:20:24;99364.04;;;5.90;80.22
50682;BME280;36779;52.168;20.878;2023-12-20T11:25:05;99357.91;;;5.92;80.16
50682;BME280;36779;52.168;20.878;2023-12-20T11:27:43;99353.98;;;5.90;80.36
50682;BME280;36779;52.168;20.878;2023-12-20T11:30:44;99353.14;;;5.92;80.26
50682;BME280;36779;52.168;20.878;2023-12-20T11:33:40;99350.45;;;5.93;80.28
50682;BME280;36779;52.168;20.878;2023-12-20T11:36:34;99347.30;;;5.92;80.24
50682;BME280;36779;52.168;20.878;2023-12-20T11:39:29;99351.52;;;5.93;80.25
50682;BME280;36779;52.168;20.878;2023-12-20T11:42:24;99348.14;;;5.93;80.26
50682;BME280;36779;52.168;20.878;2023-12-20T11:48:15;99337.94;;;5.92;80.18
50682;BME280;36779;52.168;20.878;2023-12-20T11:51:17;99336.84;;;5.91;80.22
50682;BME280;36779;52.168;20.878;2023-12-20T11:54:04;99330.75;;;5.90;80.15
50682;BME280;36779;52.168;20.878;2023-12-20T11:57:02;99328.66;;;5.88;80.21
50682;BME280;36779;52.168;20.878;2023-12-20T12:00:01;99328.88;;;5.84;80.23
50682;BME280;36779;52.168;20.878;2023-12-20T12:02:58;99327.59;;;5.80;80.06
50682;BME280;36779;52.168;20.878;2023-12-20T12:05:48;99328.05;;;5.75;80.09
50682;BME280;36779;52.168;20.878;2023-12-20T12:08:22;99324.52;;;5.74;80.12
50682;BME280;36779;52.168;20.878;2023-12-20T12:11:15;99325.63;;;5.71;80.15
50682;BME280;36779;52.168;20.878;2023-12-20T12:14:08;99326.90;;;5.69;80.09
50682;BME280;36779;52.168;20.878;2023-12-20T12:17:19;99322.42;;;5.68;80.14
50682;BME280;36779;52.168;20.878;2023-12-20T12:19:52;99322.80;;;5.68;80.16
50682;BME280;36779;52.168;20.878;2023-12-20T12:23:00;99321.67;;;5.67;80.07
50682;BME280;36779;52.168;20.878;2023-12-20T12:25:50;99317.09;;;5.65;80.14
50682;BME280;36779;52.168;20.878;2023-12-20T12:28:28;99309.65;;;5.64;80.14
50682;BME280;36779;52.168;20.878;2023-12-20T12:31:04;99313.77;;;5.63;80.16
50682;BME280;36779;52.168;20.878;2023-12-20T12:33:58;99313.13;;;5.61;80.17
50682;BME280;36779;52.168;20.878;2023-12-20T12:36:47;99306.39;;;5.58;80.14
50682;BME280;36779;52.168;20.878;2023-12-20T12:39:43;99303.08;;;5.54;80.20
50682;BME280;36779;52.168;20.878;2023-12-20T12:42:36;99301.17;;;5.52;80.07
50682;BME280;36779;52.168;20.878;2023-12-20T12:45:25;99298.13;;;5.49;80.11
50682;BME280;36779;52.168;20.878;2023-12-20T12:48:05;99305.02;;;5.47;80.12
50682;BME280;36779;52.168;20.878;2023-12-20T12:51:03;99306.16;;;5.44;80.09
50682;BME280;36779;52.168;20.878;2023-12-20T12:54:04;99303.14;;;5.43;80.14
50682;BME280;36779;52.168;20.878;2023-12-20T12:56:58;99304.45;;;5.40;80.17
50682;BME280;36779;52.168;20.878;2023-12-20T13:00:13;99304.15;;;5.40;80.20
50682;BME280;36779;52.168;20.878;2023-12-20T13:03:37;99304.10;;;5.38;80.15
50682;BME280;36779;52.168;20.878;2023-12-20T13:06:31;99305.35;;;5.38;80.14
50682;BME280;36779;52.168;20.878;2023-12-20T13:09:24;99299.03;;;5.35;80.06
50682;BME280;36779;52.168;20.878;2023-12-20T13:12:18;99290.19;;;5.31;80.09
50682;BME280;36779;52.168;20.878;2023-12-20T13:15:13;99290.73;;;5.30;80.16
50682;BME280;36779;52.168;20.878;2023-12-20T13:18:06;99295.61;;;5.28;80.17
50682;BME280;36779;52.168;20.878;2023-12-20T13:21:00;99297.27;;;5.29;80.19
50682;BME280;36779;52.168;20.878;2023-12-20T13:23:53;99292.71;;;5.29;80.13
50682;BME280;36779;52.168;20.878;2023-12-20T13:26:48;99291.77;;;5.28;80.15
50682;BME280;36779;52.168;20.878;2023-12-20T13:29:44;99289.20;;;5.27;80.13
50682;BME280;36779;52.168;20.878;2023-12-20T13:32:38;99285.97;;;5.28;80.20
50682;BME280;36779;52.168;20.878;2023-12-20T13:35:35;99289.43;;;5.32;80.34
50682;BME280;36779;52.168;20.878;2023-12-20T13:38:27;99290.08;;;5.34;80.17
50682;BME280;36779;52.168;20.878;2023-12-20T13:41:13;99293.67;;;5.35;80.21
50682;BME280;36779;52.168;20.878;2023-12-20T13:44:07;99295.09;;;5.35;80.27
50682;BME280;36779;52.168;20.878;2023-12-20T13:46:54;99289.29;;;5.37;80.26
50682;BME280;36779;52.168;20.878;2023-12-20T13:49:47;99288.89;;;5.37;80.24
50682;BME280;36779;52.168;20.878;2023-12-20T13:52:39;99285.73;;;5.39;80.38
50682;BME280;36779;52.168;20.878;2023-12-20T13:56:00;99283.88;;;5.40;80.24
50682;BME280;36779;52.168;20.878;2023-12-20T13:59:05;99292.97;;;5.39;80.27
50682;BME280;36779;52.168;20.878;2023-12-20T14:01:51;99290.02;;;5.38;80.20
50682;BME280;36779;52.168;20.878;2023-12-20T14:04:48;99281.42;;;5.36;80.21
50682;BME280;36779;52.168;20.878;2023-12-20T14:07:37;99284.08;;;5.33;80.14
50682;BME280;36779;52.168;20.878;2023-12-20T14:10:31;99285.73;;;5.29;80.09
50682;BME280;36779;52.168;20.878;2023-12-20T14:13:53;99280.50;;;5.21;80.08
50682;BME280;36779;52.168;20.878;2023-12-20T14:16:42;99285.08;;;5.18;80.07
50682;BME280;36779;52.168;20.878;2023-12-20T14:20:02;99290.51;;;5.14;79.97
50682;BME280;36779;52.168;20.878;2023-12-20T14:22:56;99290.83;;;5.09;79.93
50682;BME280;36779;52.168;20.878;2023-12-20T14:25:40;99293.01;;;5.05;80.02
50682;BME280;36779;52.168;20.878;2023-12-20T14:28:43;99289.77;;;5.01;80.01
50682;BME280;36779;52.168;20.878;2023-12-20T14:31:43;99300.09;;;4.96;80.02
50682;BME280;36779;52.168;20.878;2023-12-20T14:34:32;99294.36;;;4.93;80.00
50682;BME280;36779;52.168;20.878;2023-12-20T14:37:26;99297.55;;;4.89;80.01
50682;BME280;36779;52.168;20.878;2023-12-20T14:43:27;99300.11;;;4.83;80.03
50682;BME280;36779;52.168;20.878;2023-12-20T14:46:23;99302.86;;;4.80;80.10
50682;BME280;36779;52.168;20.878;2023-12-20T14:49:18;99301.27;;;4.79;80.12
50682;BME280;36779;52.168;20.878;2023-12-20T14:52:11;99303.83;;;4.76;80.01
50682;BME280;36779;52.168;20.878;2023-12-20T14:55:06;99307.06;;;4.75;80.08
50682;BME280;36779;52.168;20.878;2023-12-20T14:58:02;99311.52;;;4.75;80.11
50682;BME280;36779;52.168;20.878;2023-12-20T15:00:47;99307.81;;;4.73;80.04
50682;BME280;36779;52.168;20.878;2023-12-20T15:03:40;99306.11;;;4.72;80.12
50682;BME280;36779;52.168;20.878;2023-12-20T15:06:35;99297.73;;;4.70;80.07
50682;BME280;36779;52.168;20.878;2023-12-20T15:09:17;99294.96;;;4.68;80.01
50682;BME280;36779;52.168;20.878;2023-12-20T15:12:19;99293.29;;;4.65;80.06
50682;BME280;36779;52.168;20.878;2023-12-20T15:15:12;99290.35;;;4.63;80.01
50682;BME280;36779;52.168;20.878;2023-12-20T15:17:45;99286.52;;;4.61;80.07
50682;BME280;36779;52.168;20.878;2023-12-20T15:24:23;99287.48;;;4.56;79.91
50682;BME280;36779;52.168;20.878;2023-12-20T15:27:19;99289.52;;;4.57;80.06
50682;BME280;36779;52.168;20.878;2023-12-20T15:30:16;99286.85;;;4.55;79.94
50682;BME280;36779;52.168;20.878;2023-12-20T15:33:09;99282.37;;;4.55;79.97
50682;BME280;36779;52.168;20.878;2023-12-20T15:35:46;99281.21;;;4.52;80.00
50682;BME280;36779;52.168;20.878;2023-12-20T15:38:39;99284.27;;;4.51;79.94
50682;BME280;36779;52.168;20.878;2023-12-20T15:41:18;99280.87;;;4.50;80.04
50682;BME280;36779;52.168;20.878;2023-12-20T15:43:53;99279.87;;;4.49;80.01
50682;BME280;36779;52.168;20.878;2023-12-20T15:46:26;99274.42;;;4.49;80.05
50682;BME280;36779;52.168;20.878;2023-12-20T15:49:19;99263.99;;;4.48;80.09
50682;BME280;36779;52.168;20.878;2023-12-20T15:52:09;99259.36;;;4.47;80.00
50682;BME280;36779;52.168;20.878;2023-12-20T15:55:04;99251.23;;;4.47;80.04